Time;durP1;ratioP1;P1;durP2;ratioP2;P2;SDS_P1;SDS_P2;PMS_P1;PMS_P2;Temp;Humidity;BMP_temperature;BMP_pressure;BME280_temperature;BME280_humidity;BME280_pressure;Samples;Min_cycle;Max_cycle;Signal;HPM_P1;HPM_P2
2022/07/24 00:01:27;;;;;;;2.33;0.57;;;17.90;99.90;;;;;;5009821;28;20065;-79
2022/07/24 00:03:52;;;;;;;2.53;0.68;;;17.90;99.90;;;;;;5009005;28;20026;-80
2022/07/24 00:06:18;;;;;;;1.13;0.50;;;17.80;99.90;;;;;;5008745;28;20474;-79
2022/07/24 00:08:43;;;;;;;1.30;0.65;;;17.80;99.90;;;;;;5013849;28;20500;-80
2022/07/24 00:11:11;;;;;;;2.40;1.00;;;17.80;99.90;;;;;;5011430;28;20062;-80
2022/07/24 00:13:37;;;;;;;1.20;0.65;;;17.80;99.90;;;;;;5009569;28;20036;-80
2022/07/24 00:16:03;;;;;;;1.40;0.70;;;17.80;99.90;;;;;;5023730;28;20026;-79
2022/07/24 00:18:29;;;;;;;1.25;0.60;;;17.70;99.90;;;;;;5004910;28;20040;-79
2022/07/24 00:20:55;;;;;;;1.67;0.60;;;17.70;99.90;;;;;;5022289;28;20073;-80
2022/07/24 00:23:22;;;;;;;1.75;0.60;;;17.80;99.90;;;;;;5008781;28;20026;-79
2022/07/24 00:25:48;;;;;;;1.88;0.60;;;17.80;99.90;;;;;;5012132;28;20033;-79
2022/07/24 00:28:13;;;;;;;1.70;0.60;;;17.80;99.90;;;;;;5010031;28;20030;-80
2022/07/24 00:30:39;;;;;;;1.52;0.60;;;17.70;99.90;;;;;;5009651;28;20478;-79
2022/07/24 00:33:05;;;;;;;1.55;0.60;;;17.70;99.90;;;;;;5009664;28;20037;-79
2022/07/24 00:35:30;;;;;;;1.33;0.60;;;17.70;99.90;;;;;;5010659;28;20340;-79
2022/07/24 00:37:56;;;;;;;2.35;0.70;;;17.60;99.90;;;;;;5004417;28;20468;-79
2022/07/24 00:40:22;;;;;;;2.58;0.70;;;17.70;99.90;;;;;;4998144;28;20030;-80
2022/07/24 00:42:48;;;;;;;1.45;0.57;;;17.60;99.90;;;;;;4999848;28;20033;-79
2022/07/24 00:45:13;;;;;;;1.92;0.80;;;17.70;99.90;;;;;;5016813;28;20121;-79
2022/07/24 00:47:39;;;;;;;1.42;0.70;;;17.70;99.90;;;;;;5008468;28;20046;-79
2022/07/24 00:50:06;;;;;;;2.88;0.70;;;17.70;99.90;;;;;;5008385;28;20088;-79
2022/07/24 00:52:31;;;;;;;2.00;0.70;;;17.60;99.90;;;;;;5005889;28;20117;-80
2022/07/24 00:54:57;;;;;;;1.45;0.60;;;17.60;99.90;;;;;;5023660;28;20113;-79
2022/07/24 00:57:23;;;;;;;1.95;0.60;;;17.60;99.90;;;;;;5005284;28;20045;-78
2022/07/24 00:59:48;;;;;;;2.22;0.80;;;17.60;99.90;;;;;;5008987;28;20037;-79
2022/07/24 01:02:14;;;;;;;1.77;0.70;;;17.50;99.90;;;;;;4998115;28;20497;-79
2022/07/24 01:04:40;;;;;;;2.45;0.80;;;17.50;99.90;;;;;;5007509;28;20474;-79
2022/07/24 01:07:07;;;;;;;1.77;0.68;;;17.40;99.90;;;;;;5008170;28;20053;-79
2022/07/24 01:09:33;;;;;;;1.73;0.73;;;17.40;99.90;;;;;;4987597;28;20042;-79
2022/07/24 01:11:59;;;;;;;2.55;0.77;;;17.40;99.90;;;;;;5002189;28;20036;-79
2022/07/24 01:14:25;;;;;;;2.67;0.80;;;17.40;99.90;;;;;;4997812;28;20026;-80
2022/07/24 01:16:51;;;;;;;2.55;0.82;;;17.40;99.90;;;;;;5003068;28;20026;-79
2022/07/24 01:19:17;;;;;;;2.47;0.80;;;17.40;99.90;;;;;;5010617;28;20048;-79
2022/07/24 01:21:51;;;;;;;1.70;0.70;;;17.40;99.90;;;;;;5007909;28;20030;-79
2022/07/24 01:24:17;;;;;;;2.17;0.85;;;17.40;99.90;;;;;;5009558;28;20030;-79
2022/07/24 01:26:43;;;;;;;2.25;0.70;;;17.40;99.90;;;;;;5026592;28;20034;-79
2022/07/24 01:29:09;;;;;;;1.50;0.70;;;17.40;99.90;;;;;;5013030;28;20026;-79
2022/07/24 01:31:34;;;;;;;3.05;0.80;;;17.30;99.90;;;;;;5014628;28;20030;-79
2022/07/24 01:34:00;;;;;;;1.58;0.75;;;17.30;99.90;;;;;;4994511;28;20112;-79
2022/07/24 01:36:26;;;;;;;2.83;0.75;;;17.20;99.90;;;;;;5007198;28;20124;-79
2022/07/24 01:38:51;;;;;;;2.03;0.93;;;17.20;99.90;;;;;;5011964;28;20042;-79
2022/07/24 01:41:17;;;;;;;2.88;0.73;;;17.20;99.90;;;;;;5006785;28;20053;-79
2022/07/24 01:43:42;;;;;;;1.70;0.85;;;17.20;99.90;;;;;;5011309;28;20041;-79
2022/07/24 01:46:09;;;;;;;1.90;1.00;;;17.10;99.90;;;;;;5022428;28;20037;-80
2022/07/24 01:48:35;;;;;;;1.90;1.10;;;17.10;99.90;;;;;;5012586;28;20113;-79
2022/07/24 01:51:01;;;;;;;2.05;0.98;;;17.10;99.90;;;;;;5011813;28;20112;-79
2022/07/24 01:53:27;;;;;;;2.10;0.90;;;17.10;99.90;;;;;;5013345;28;20474;-79
2022/07/24 01:55:54;;;;;;;2.42;1.00;;;17.20;99.90;;;;;;5006631;28;20113;-79
2022/07/24 01:58:20;;;;;;;2.42;1.13;;;17.20;99.90;;;;;;4994691;28;20369;-79
2022/07/24 02:00:46;;;;;;;2.50;1.20;;;17.10;99.90;;;;;;5015113;28;20038;-79
2022/07/24 02:03:12;;;;;;;3.05;1.60;;;17.20;99.90;;;;;;5008636;28;20068;-79
2022/07/24 02:05:37;;;;;;;1.50;0.82;;;17.10;99.90;;;;;;4998814;28;20062;-79
2022/07/24 02:08:03;;;;;;;2.85;1.20;;;17.20;99.90;;;;;;5009476;28;20076;-79
2022/07/24 02:10:29;;;;;;;2.53;1.25;;;17.10;99.90;;;;;;5011106;28;20508;-79
2022/07/24 02:12:56;;;;;;;2.90;1.30;;;17.10;99.90;;;;;;4994069;28;20034;-79
2022/07/24 02:15:22;;;;;;;2.45;1.88;;;17.00;99.90;;;;;;5008135;28;20120;-79
2022/07/24 02:17:49;;;;;;;3.90;1.30;;;17.00;99.90;;;;;;5011087;28;20120;-79
2022/07/24 02:20:15;;;;;;;1.98;1.15;;;17.00;99.90;;;;;;5007224;28;20401;-79
2022/07/24 02:22:41;;;;;;;4.28;1.52;;;17.10;99.90;;;;;;4988395;28;20473;-78
2022/07/24 02:25:07;;;;;;;3.42;1.20;;;17.00;99.90;;;;;;5011602;28;20029;-79
2022/07/24 02:27:33;;;;;;;2.65;1.52;;;17.10;99.90;;;;;;5012157;28;20030;-79
2022/07/24 02:29:59;;;;;;;2.53;1.50;;;17.00;99.90;;;;;;5011118;28;20113;-79
2022/07/24 02:32:24;;;;;;;2.22;1.42;;;17.00;99.90;;;;;;5014141;28;20433;-79
2022/07/24 02:34:51;;;;;;;2.03;1.13;;;16.90;99.90;;;;;;5007027;28;20049;-78
2022/07/24 02:37:17;;;;;;;1.90;1.30;;;16.90;99.90;;;;;;5010874;28;20029;-78
2022/07/24 02:39:42;;;;;;;3.92;1.60;;;16.90;99.90;;;;;;4994716;28;20506;-79
2022/07/24 02:42:08;;;;;;;2.70;1.60;;;16.90;99.90;;;;;;5009461;28;20033;-79
2022/07/24 02:44:34;;;;;;;4.35;1.95;;;16.90;99.90;;;;;;4993842;28;20030;-79
2022/07/24 02:46:59;;;;;;;2.80;1.88;;;16.80;99.90;;;;;;5011821;28;20056;-79
2022/07/24 02:49:25;;;;;;;3.00;1.52;;;16.80;99.90;;;;;;5010896;28;20036;-79
2022/07/24 02:51:51;;;;;;;2.50;1.70;;;16.80;99.90;;;;;;4984391;28;20463;-79
2022/07/24 02:54:16;;;;;;;2.90;1.63;;;16.70;99.90;;;;;;5010931;28;20048;-79
2022/07/24 02:56:43;;;;;;;3.28;2.00;;;16.70;99.90;;;;;;4989743;28;20030;-79
2022/07/24 02:59:08;;;;;;;2.75;1.25;;;16.70;99.90;;;;;;4989376;28;20088;-79
2022/07/24 03:01:34;;;;;;;3.80;1.80;;;16.60;99.90;;;;;;5012096;28;20413;-78
2022/07/24 03:04:00;;;;;;;2.25;1.58;;;16.70;99.90;;;;;;5006455;28;20033;-79
2022/07/24 03:06:26;;;;;;;2.50;1.65;;;16.60;99.90;;;;;;5009667;28;20034;-78
2022/07/24 03:08:51;;;;;;;3.38;2.17;;;16.60;99.90;;;;;;5006133;28;20050;-79
2022/07/24 03:11:17;;;;;;;4.22;1.85;;;16.60;99.90;;;;;;5003965;28;20437;-78
2022/07/24 03:13:43;;;;;;;6.95;2.30;;;16.50;99.90;;;;;;4990696;28;20030;-79
2022/07/24 03:16:09;;;;;;;4.22;2.45;;;16.50;99.90;;;;;;5010032;28;20022;-79
2022/07/24 03:18:35;;;;;;;3.72;2.00;;;16.50;99.90;;;;;;5011435;28;20468;-78
2022/07/24 03:21:01;;;;;;;3.75;1.73;;;16.50;99.90;;;;;;5006317;28;20042;-79
2022/07/24 03:23:26;;;;;;;4.00;2.13;;;16.50;99.90;;;;;;5003578;28;20113;-79
2022/07/24 03:25:54;;;;;;;2.53;2.05;;;16.50;99.90;;;;;;5007370;28;20025;-79
2022/07/24 03:28:19;;;;;;;3.20;1.75;;;16.50;99.90;;;;;;4991448;28;20026;-79
2022/07/24 03:30:45;;;;;;;2.20;1.90;;;16.50;99.90;;;;;;5014181;28;20026;-79
2022/07/24 03:33:11;;;;;;;3.33;2.35;;;16.40;99.90;;;;;;5011023;28;20527;-78
2022/07/24 03:35:36;;;;;;;3.38;2.58;;;16.50;99.90;;;;;;5005653;28;20018;-78
2022/07/24 03:38:02;;;;;;;3.15;2.25;;;16.50;99.90;;;;;;4997829;28;20473;-79
2022/07/24 03:40:28;;;;;;;3.35;2.53;;;16.50;99.90;;;;;;5000641;28;20030;-79
2022/07/24 03:42:53;;;;;;;3.67;2.53;;;16.50;99.90;;;;;;5018612;28;20034;-78
2022/07/24 03:45:19;;;;;;;3.28;2.35;;;16.50;99.90;;;;;;5004911;28;20018;-79
2022/07/24 03:47:45;;;;;;;3.60;2.50;;;16.50;99.90;;;;;;5007324;28;20482;-79
2022/07/24 03:50:11;;;;;;;3.65;3.15;;;16.50;99.90;;;;;;5010503;28;20076;-78
2022/07/24 03:52:36;;;;;;;3.85;2.70;;;16.50;99.90;;;;;;5025775;28;20038;-79
2022/07/24 03:55:02;;;;;;;5.05;2.97;;;16.50;99.90;;;;;;5010883;28;20026;-79
2022/07/24 03:57:28;;;;;;;3.78;2.22;;;16.50;99.90;;;;;;5004301;28;20128;-79
2022/07/24 03:59:54;;;;;;;2.92;2.25;;;16.50;99.90;;;;;;4992947;28;20188;-78
2022/07/24 04:02:19;;;;;;;4.05;2.47;;;16.50;99.90;;;;;;5010534;28;20080;-79
2022/07/24 04:04:45;;;;;;;4.05;3.45;;;16.50;99.90;;;;;;4991998;28;20084;-78
2022/07/24 04:07:11;;;;;;;4.55;3.20;;;16.50;99.90;;;;;;5010821;28;20026;-78
2022/07/24 04:09:36;;;;;;;4.70;3.08;;;16.50;99.90;;;;;;5004807;28;20034;-79
2022/07/24 04:12:02;;;;;;;3.00;2.38;;;16.50;99.90;;;;;;5007597;28;20022;-79
2022/07/24 04:14:28;;;;;;;3.25;2.15;;;16.60;99.90;;;;;;5007597;28;20081;-79
2022/07/24 04:16:54;;;;;;;5.03;3.20;;;16.50;99.90;;;;;;5008635;28;20030;-79
2022/07/24 04:19:19;;;;;;;7.88;3.42;;;16.50;99.90;;;;;;5008650;28;20399;-79
2022/07/24 04:21:45;;;;;;;4.78;2.85;;;16.50;99.90;;;;;;5008449;28;20018;-79
2022/07/24 04:24:10;;;;;;;3.08;2.45;;;16.50;99.90;;;;;;5008583;28;20029;-79
2022/07/24 04:26:36;;;;;;;3.95;3.40;;;16.50;99.90;;;;;;5009983;28;20462;-78
2022/07/24 04:29:02;;;;;;;3.95;3.15;;;16.60;99.90;;;;;;5004225;28;20025;-79
2022/07/24 04:31:28;;;;;;;4.47;3.00;;;16.60;99.90;;;;;;5009541;28;20037;-79
2022/07/24 04:33:53;;;;;;;5.32;3.40;;;16.60;99.90;;;;;;5007925;28;20038;-79
2022/07/24 04:36:19;;;;;;;4.03;3.13;;;16.70;99.90;;;;;;5009644;28;20072;-79
2022/07/24 04:38:44;;;;;;;3.83;3.20;;;16.70;99.90;;;;;;5009380;28;20033;-79
2022/07/24 04:41:10;;;;;;;3.95;3.08;;;16.70;99.90;;;;;;5009474;28;20014;-79
2022/07/24 04:43:36;;;;;;;5.63;3.15;;;16.80;99.90;;;;;;5006791;28;20474;-79
2022/07/24 04:46:01;;;;;;;3.80;3.20;;;16.80;99.90;;;;;;4991592;28;20293;-77
2022/07/24 04:48:27;;;;;;;5.10;3.15;;;16.80;99.90;;;;;;5012807;28;20037;-79
2022/07/24 04:50:53;;;;;;;4.03;3.22;;;16.80;99.90;;;;;;5007910;28;20098;-79
2022/07/24 04:53:18;;;;;;;5.70;3.38;;;17.00;99.90;;;;;;5000155;28;20037;-78
2022/07/24 04:55:44;;;;;;;3.30;2.75;;;17.10;99.90;;;;;;5008226;28;20068;-79
2022/07/24 04:58:09;;;;;;;4.15;3.08;;;17.30;99.90;;;;;;5003256;28;20121;-79
2022/07/24 05:00:35;;;;;;;5.43;3.75;;;17.50;99.90;;;;;;5011878;28;20433;-79
2022/07/24 05:03:01;;;;;;;7.95;3.92;;;17.50;99.90;;;;;;4995562;28;20049;-78
2022/07/24 05:05:26;;;;;;;5.50;2.85;;;17.60;99.90;;;;;;5005424;28;20034;-79
2022/07/24 05:07:52;;;;;;;3.25;2.92;;;17.70;99.90;;;;;;5003708;28;20041;-79
2022/07/24 05:10:18;;;;;;;4.97;2.97;;;17.80;99.90;;;;;;4974861;28;20125;-80
2022/07/24 05:12:43;;;;;;;4.82;3.97;;;17.90;99.90;;;;;;4990630;28;20037;-79
2022/07/24 05:15:09;;;;;;;4.72;4.03;;;17.90;99.90;;;;;;4988338;28;20034;-79
2022/07/24 05:17:36;;;;;;;6.13;3.38;;;17.90;99.90;;;;;;5006496;28;20107;-79
2022/07/24 05:20:05;;;;;;;4.68;3.50;;;17.90;99.90;;;;;;4993302;28;20048;-79
2022/07/24 05:22:31;;;;;;;4.10;3.65;;;17.90;99.90;;;;;;4992371;28;20030;-79
2022/07/24 05:24:56;;;;;;;5.47;3.35;;;17.90;99.90;;;;;;4989230;28;20072;-80
2022/07/24 05:27:22;;;;;;;7.35;4.18;;;18.00;99.90;;;;;;4972092;28;20036;-79
2022/07/24 05:29:48;;;;;;;4.40;3.35;;;18.00;99.90;;;;;;4988050;28;20044;-80
2022/07/24 05:32:13;;;;;;;5.22;4.20;;;18.00;99.90;;;;;;5000373;28;20026;-79
2022/07/24 05:34:39;;;;;;;6.82;5.88;;;18.10;99.90;;;;;;4989661;28;20033;-81
2022/07/24 05:37:05;;;;;;;6.45;5.72;;;18.10;99.90;;;;;;4972582;28;20026;-79
2022/07/24 05:39:31;;;;;;;8.60;5.32;;;18.20;99.90;;;;;;4994319;28;20194;-79
2022/07/24 05:41:56;;;;;;;7.05;5.43;;;18.30;99.90;;;;;;5002844;28;20029;-78
2022/07/24 05:44:22;;;;;;;7.35;5.38;;;18.30;99.90;;;;;;5005538;28;20390;-80
2022/07/24 05:46:48;;;;;;;5.95;4.63;;;18.40;99.90;;;;;;5007595;28;20359;-78
2022/07/24 05:49:13;;;;;;;6.93;5.85;;;18.50;99.90;;;;;;5007619;28;20034;-79
2022/07/24 05:51:39;;;;;;;8.88;4.95;;;18.70;99.90;;;;;;5006739;28;20030;-80
2022/07/24 05:54:06;;;;;;;5.80;4.97;;;18.80;99.90;;;;;;4987022;28;20045;-79
2022/07/24 05:56:32;;;;;;;5.25;4.75;;;18.90;99.90;;;;;;5005548;28;20159;-80
2022/07/24 05:58:57;;;;;;;7.13;4.72;;;19.00;99.90;;;;;;4994767;28;20049;-80
2022/07/24 06:01:23;;;;;;;7.30;5.78;;;19.10;99.90;;;;;;5005325;28;20026;-80
2022/07/24 06:03:48;;;;;;;8.30;6.40;;;19.20;99.90;;;;;;5006544;28;20030;-79
2022/07/24 06:06:14;;;;;;;7.40;6.50;;;19.40;99.90;;;;;;4999931;28;20077;-79
2022/07/24 06:08:40;;;;;;;7.38;5.93;;;19.50;99.90;;;;;;4998635;28;20057;-80
2022/07/24 06:11:06;;;;;;;5.90;5.13;;;19.80;99.90;;;;;;4998820;28;20022;-80
2022/07/24 06:13:31;;;;;;;6.43;5.78;;;20.00;99.90;;;;;;5008575;28;20486;-80
2022/07/24 06:15:57;;;;;;;8.25;6.05;;;20.20;99.90;;;;;;5005984;28;20022;-80
2022/07/24 06:18:22;;;;;;;6.45;5.18;;;20.30;99.90;;;;;;4999749;28;20027;-80
2022/07/24 06:20:48;;;;;;;7.03;5.90;;;20.50;99.90;;;;;;5006310;28;20076;-80
2022/07/24 06:23:14;;;;;;;7.20;6.32;;;20.60;99.90;;;;;;4991308;28;20075;-80
2022/07/24 06:25:40;;;;;;;8.60;6.72;;;20.70;99.90;;;;;;5008814;28;20038;-80
2022/07/24 06:28:05;;;;;;;8.45;7.55;;;20.80;99.90;;;;;;5009258;28;20037;-80
2022/07/24 06:30:31;;;;;;;7.70;6.30;;;20.90;99.90;;;;;;5012021;28;20022;-79
2022/07/24 06:32:58;;;;;;;7.25;6.28;;;21.10;99.90;;;;;;5009074;28;20021;-80
2022/07/24 06:35:26;;;;;;;8.50;6.68;;;21.30;99.90;;;;;;5008823;28;20104;-80
2022/07/24 06:37:52;;;;;;;7.40;6.20;;;21.50;99.90;;;;;;5008704;28;20030;-80
2022/07/24 06:40:19;;;;;;;8.50;7.18;;;21.60;99.90;;;;;;5011427;28;20386;-81
2022/07/24 06:42:47;;;;;;;8.60;6.93;;;21.80;99.90;;;;;;5000318;28;20497;-80
2022/07/24 06:45:13;;;;;;;5.15;3.72;;;21.70;99.90;;;;;;5006967;28;20018;-80
2022/07/24 06:47:40;;;;;;;12.60;11.07;;;21.90;99.90;;;;;;4988256;28;20099;-80
2022/07/24 06:50:06;;;;;;;10.40;8.80;;;21.20;99.90;;;;;;5002355;28;20425;-80
2022/07/24 06:52:31;;;;;;;14.18;10.02;;;21.30;99.90;;;;;;5008565;28;20036;-81
2022/07/24 06:54:57;;;;;;;7.05;6.32;;;21.40;99.90;;;;;;5010191;28;20071;-80
2022/07/24 06:57:25;;;;;;;9.48;5.20;;;21.80;99.90;;;;;;5011341;28;20030;-81
2022/07/24 06:59:52;;;;;;;9.73;7.30;;;22.10;99.90;;;;;;5007219;28;20089;-82
2022/07/24 07:02:18;;;;;;;8.68;6.43;;;21.90;99.90;;;;;;5012314;28;20037;-81
2022/07/24 07:04:44;;;;;;;9.05;6.90;;;21.90;99.90;;;;;;5006901;28;20034;-80
2022/07/24 07:07:10;;;;;;;6.53;5.00;;;21.90;99.90;;;;;;4992879;28;20031;-81
2022/07/24 07:09:35;;;;;;;5.88;4.30;;;22.40;99.90;;;;;;4991362;28;20064;-81
2022/07/24 07:12:03;;;;;;;4.32;3.92;;;22.80;99.90;;;;;;4991780;28;20030;-82
2022/07/24 07:14:28;;;;;;;3.78;3.35;;;23.00;99.90;;;;;;5004356;28;20585;-82
2022/07/24 07:16:54;;;;;;;4.63;3.47;;;23.20;99.90;;;;;;4993085;28;20117;-81
2022/07/24 07:19:20;;;;;;;4.78;4.18;;;23.20;99.90;;;;;;4974754;28;20042;-82
2022/07/24 07:21:45;;;;;;;5.25;4.03;;;23.20;99.90;;;;;;5007266;28;20037;-81
2022/07/24 07:24:11;;;;;;;4.50;3.33;;;23.50;99.90;;;;;;4997072;28;20514;-82
2022/07/24 07:26:37;;;;;;;3.28;2.75;;;23.70;99.90;;;;;;5007068;28;20105;-81
2022/07/24 07:29:02;;;;;;;6.97;5.68;;;23.60;99.90;;;;;;5008244;28;20080;-81
2022/07/24 07:31:28;;;;;;;6.07;4.53;;;22.80;99.90;;;;;;5001352;28;20029;-81
2022/07/24 07:33:54;;;;;;;8.15;6.32;;;22.90;99.90;;;;;;5009707;28;20033;-82
2022/07/24 07:36:20;;;;;;;7.20;5.65;;;22.90;99.90;;;;;;5005780;28;20120;-81
2022/07/24 07:38:45;;;;;;;6.25;3.38;;;23.10;99.90;;;;;;5003037;28;20044;-82
2022/07/24 07:41:12;;;;;;;4.70;2.72;;;23.50;99.90;;;;;;5005215;28;20079;-82
2022/07/24 07:43:38;;;;;;;6.80;3.80;;;23.90;99.90;;;;;;4990373;28;20034;-82
2022/07/24 07:46:04;;;;;;;7.85;4.45;;;24.20;99.90;;;;;;4988754;28;20030;-82
2022/07/24 07:48:30;;;;;;;3.88;3.13;;;23.90;99.90;;;;;;5008206;28;20053;-83
2022/07/24 07:50:56;;;;;;;7.78;5.95;;;24.50;99.90;;;;;;4973542;28;20030;-82
2022/07/24 07:53:22;;;;;;;6.43;4.07;;;24.20;99.90;;;;;;4991228;28;20123;-81
2022/07/24 07:55:51;;;;;;;4.88;3.22;;;24.80;99.90;;;;;;4972197;28;20120;-81
2022/07/24 07:58:17;;;;;;;6.05;4.93;;;25.00;99.90;;;;;;4992238;28;20056;-81
2022/07/24 08:00:43;;;;;;;7.47;5.70;;;24.70;99.90;;;;;;4988245;28;20035;-82
2022/07/24 08:03:09;;;;;;;4.85;4.05;;;25.10;99.90;;;;;;4996352;28;20041;-83
2022/07/24 08:05:35;;;;;;;7.28;5.45;;;25.30;99.90;;;;;;4985101;28;20022;-82
2022/07/24 08:08:01;;;;;;;6.43;4.28;;;25.10;99.90;;;;;;5006707;28;20482;-83
2022/07/24 08:10:27;;;;;;;7.78;5.53;;;25.20;99.90;;;;;;4976866;28;20087;-82
2022/07/24 08:12:52;;;;;;;7.32;6.05;;;24.90;99.90;;;;;;4997180;28;20072;-82
2022/07/24 08:15:18;;;;;;;8.63;7.03;;;24.60;99.90;;;;;;4992002;28;20148;-82
2022/07/24 08:17:44;;;;;;;7.18;6.15;;;24.70;99.90;;;;;;4989856;28;20094;-82
2022/07/24 08:20:10;;;;;;;5.90;3.53;;;24.70;99.90;;;;;;4996068;28;20050;-82
2022/07/24 08:22:36;;;;;;;5.40;3.67;;;25.50;99.90;;;;;;4990949;28;20030;-82
2022/07/24 08:25:02;;;;;;;3.58;1.95;;;25.10;99.90;;;;;;4987528;28;20032;-83
2022/07/24 08:27:27;;;;;;;3.25;1.63;;;25.60;99.90;;;;;;4992934;28;20034;-84
2022/07/24 08:29:54;;;;;;;2.67;1.23;;;26.00;99.90;;;;;;4989196;28;20092;-82
2022/07/24 08:32:20;;;;;;;1.95;1.10;;;25.70;99.90;;;;;;4992441;28;20088;-84
2022/07/24 08:34:46;;;;;;;2.17;1.10;;;25.30;99.90;;;;;;4991842;28;20037;-82
2022/07/24 08:37:11;;;;;;;3.42;1.30;;;25.70;99.90;;;;;;4986016;28;20049;-85
2022/07/24 08:39:37;;;;;;;2.83;1.30;;;25.60;99.90;;;;;;4987397;28;20049;-84
2022/07/24 08:42:03;;;;;;;4.07;2.05;;;25.20;99.90;;;;;;4993810;28;20069;-82
2022/07/24 08:44:28;;;;;;;4.70;3.42;;;24.50;99.90;;;;;;5000593;28;20110;-83
2022/07/24 08:46:57;;;;;;;5.70;2.65;;;24.30;99.90;;;;;;5003755;28;20342;-83
2022/07/24 08:49:23;;;;;;;4.13;2.42;;;24.50;99.90;;;;;;4996253;28;20034;-83
2022/07/24 08:51:50;;;;;;;2.13;1.00;;;25.10;99.90;;;;;;4987758;28;20105;-83
2022/07/24 08:54:16;;;;;;;4.45;2.53;;;26.00;99.90;;;;;;4991979;28;20489;-83
2022/07/24 08:56:42;;;;;;;4.55;2.33;;;25.50;99.90;;;;;;4991901;28;20117;-83
2022/07/24 08:59:19;;;;;;;4.78;1.67;;;25.50;99.90;;;;;;4985721;28;20052;-84
2022/07/24 09:01:47;;;;;;;2.05;0.90;;;26.00;99.90;;;;;;5003686;28;20553;-83
2022/07/24 09:04:39;;;;;;;2.00;0.60;;;26.80;99.90;;;;;;5004639;28;20030;-83
2022/07/24 09:07:11;;;;;;;2.50;1.30;;;27.20;99.90;;;;;;4986318;28;20037;-83
2022/07/24 09:09:38;;;;;;;3.05;0.80;;;26.10;99.90;;;;;;5005991;28;20064;-83
2022/07/24 09:12:08;;;;;;;1.73;0.90;;;26.30;99.90;;;;;;4994123;28;20038;-85
2022/07/24 09:14:39;;;;;;;4.55;1.23;;;26.80;99.90;;;;;;4990596;28;20509;-82
2022/07/24 09:17:07;;;;;;;2.22;0.70;;;26.80;99.90;;;;;;4993991;28;20029;-84
2022/07/24 09:19:54;;;;;;;1.15;0.50;;;26.20;99.90;;;;;;4989694;28;20440;-85
2022/07/24 09:22:47;;;;;;;1.73;0.50;;;26.10;99.90;;;;;;5007421;28;20489;-83
2022/07/24 09:25:17;;;;;;;2.58;0.60;;;26.60;99.90;;;;;;4994614;28;20034;-88
2022/07/24 09:27:46;;;;;;;1.00;0.50;;;27.40;99.90;;;;;;4991080;28;20404;-83
2022/07/24 09:30:28;;;;;;;2.00;0.57;;;26.80;99.90;;;;;;4968786;28;20451;-86
2022/07/24 09:33:22;;;;;;;1.35;0.50;;;26.60;99.90;;;;;;4973142;28;20045;-83
2022/07/24 09:35:51;;;;;;;0.90;0.40;;;26.70;99.90;;;;;;4970088;28;20092;-83
2022/07/24 09:38:19;;;;;;;1.02;0.40;;;26.50;99.90;;;;;;5010563;28;20770;-83
2022/07/24 09:40:49;;;;;;;1.13;0.30;;;27.30;99.90;;;;;;4990149;28;20045;-82
2022/07/24 09:43:23;;;;;;;1.35;0.40;;;27.00;99.90;;;;;;4998959;28;20178;-83
2022/07/24 09:45:56;;;;;;;0.90;0.30;;;27.20;99.90;;;;;;5011475;28;20056;-84
2022/07/24 09:48:34;;;;;;;1.02;0.30;;;27.80;99.90;;;;;;4983810;28;20074;-85
2022/07/24 09:51:15;;;;;;;0.70;0.30;;;28.10;99.90;;;;;;4998832;28;20131;-84
2022/07/24 09:53:43;;;;;;;0.70;0.30;;;28.40;99.90;;;;;;4998996;28;20069;-85
2022/07/24 09:56:11;;;;;;;1.02;0.30;;;28.80;99.90;;;;;;5001251;28;20026;-84
2022/07/24 09:58:47;;;;;;;0.70;0.30;;;27.90;99.90;;;;;;4996905;28;20053;-83
2022/07/24 10:01:16;;;;;;;0.70;0.40;;;27.30;99.90;;;;;;4993544;28;20124;-85
2022/07/24 10:03:45;;;;;;;0.93;0.40;;;27.20;99.90;;;;;;4976544;28;20121;-87
2022/07/24 10:06:22;;;;;;;3.03;0.43;;;27.80;99.90;;;;;;5008468;28;20436;-85
2022/07/24 10:08:50;;;;;;;3.20;0.40;;;27.00;99.90;;;;;;4998529;28;20050;-85
2022/07/24 10:11:17;;;;;;;0.63;0.30;;;26.60;99.90;;;;;;5000573;28;20052;-87
2022/07/24 10:13:43;;;;;;;0.90;0.40;;;27.00;99.90;;;;;;5002514;28;20542;-83
2022/07/24 10:16:12;;;;;;;0.68;0.30;;;27.20;99.90;;;;;;5014343;28;20041;-83
2022/07/24 10:18:54;;;;;;;0.60;0.30;;;27.30;99.90;;;;;;4970807;28;20502;-84
2022/07/24 10:21:27;;;;;;;0.82;0.30;;;27.70;99.90;;;;;;4993686;28;20049;-83
2022/07/24 10:24:05;;;;;;;0.95;0.30;;;27.90;99.90;;;;;;4978701;28;20537;-84
2022/07/24 10:26:34;;;;;;;1.50;0.20;;;28.60;99.90;;;;;;5000378;28;20033;-83
2022/07/24 10:29:10;;;;;;;0.50;0.30;;;28.90;99.90;;;;;;4997154;28;20018;-82
2022/07/24 10:31:38;;;;;;;0.77;0.25;;;28.80;99.90;;;;;;5000851;28;20063;-81
2022/07/24 10:34:12;;;;;;;0.57;0.20;;;29.10;99.90;;;;;;4992371;28;20041;-87
2022/07/24 10:36:48;;;;;;;0.85;0.20;;;28.60;99.90;;;;;;4996739;28;20488;-86
2022/07/24 10:39:25;;;;;;;1.00;0.30;;;28.20;99.90;;;;;;5011319;28;20130;-86
2022/07/24 10:42:03;;;;;;;0.73;0.30;;;27.60;99.90;;;;;;4982694;28;20053;-84
2022/07/24 10:44:28;;;;;;;0.65;0.30;;;28.40;99.90;;;;;;5018347;28;20041;-86
2022/07/24 10:47:16;;;;;;;3.05;0.30;;;28.90;99.90;;;;;;5004220;28;20045;-86
2022/07/24 10:49:43;;;;;;;1.00;0.30;;;29.10;99.90;;;;;;4998678;28;20038;-85
2022/07/24 10:52:22;;;;;;;0.52;0.25;;;29.70;99.90;;;;;;4997323;28;20109;-86
2022/07/24 10:55:08;;;;;;;0.98;0.30;;;29.90;99.90;;;;;;4992546;28;20040;-84
2022/07/24 10:58:08;;;;;;;0.50;0.25;;;29.60;99.90;;;;;;4997799;28;20363;-84
2022/07/24 11:00:36;;;;;;;1.20;0.30;;;28.70;99.90;;;;;;5002591;28;20034;-84
2022/07/24 11:03:22;;;;;;;0.50;0.20;;;28.60;99.90;;;;;;4995837;28;20283;-85
2022/07/24 11:06:09;;;;;;;0.32;0.20;;;29.50;99.90;;;;;;4973900;28;20594;-87
2022/07/24 11:08:51;;;;;;;0.70;0.30;;;29.80;99.90;;;;;;5002918;28;20069;-84
2022/07/24 11:11:19;;;;;;;0.90;0.30;;;29.70;99.90;;;;;;4997419;28;20030;-86
2022/07/24 11:13:51;;;;;;;0.70;0.30;;;28.50;99.90;;;;;;4998861;28;20026;-87
2022/07/24 11:16:16;;;;;;;1.00;0.30;;;28.10;99.90;;;;;;5018808;28;20026;-84
2022/07/24 11:18:54;;;;;;;1.15;0.35;;;28.20;99.90;;;;;;4997586;28;20049;-84
2022/07/24 11:21:35;;;;;;;0.60;0.30;;;28.00;99.90;;;;;;5003670;28;20018;-90
2022/07/24 11:24:14;;;;;;;0.60;0.30;;;27.70;99.90;;;;;;5016511;28;20425;-84
2022/07/24 11:26:45;;;;;;;3.35;0.30;;;28.10;99.90;;;;;;5003431;28;20080;-87
2022/07/24 11:29:22;;;;;;;0.90;0.35;;;28.10;99.90;;;;;;4987256;28;20202;-89
2022/07/24 11:31:53;;;;;;;0.70;0.30;;;27.80;99.90;;;;;;4994273;28;20168;-84
2022/07/24 11:34:19;;;;;;;2.28;0.30;;;27.50;99.90;;;;;;4995888;28;20370;-84
2022/07/24 11:36:50;;;;;;;1.20;0.20;;;28.60;99.90;;;;;;5013239;28;20116;-84
2022/07/24 11:39:18;;;;;;;0.70;0.30;;;29.20;99.90;;;;;;4977448;28;20080;-84
2022/07/24 11:41:45;;;;;;;0.45;0.20;;;28.90;99.90;;;;;;4993549;28;20041;-87
2022/07/24 11:44:11;;;;;;;1.25;0.30;;;28.90;99.90;;;;;;4975457;28;20033;-84
2022/07/24 11:46:39;;;;;;;0.98;0.32;;;28.60;99.90;;;;;;4999575;28;20036;-83
2022/07/24 11:49:09;;;;;;;0.50;0.20;;;28.60;99.90;;;;;;4996223;28;20034;-84
2022/07/24 11:51:42;;;;;;;0.60;0.30;;;29.30;99.90;;;;;;4996500;28;20037;-83
2022/07/24 11:54:09;;;;;;;0.95;0.30;;;29.20;99.90;;;;;;5000219;28;20029;-85
2022/07/24 11:56:34;;;;;;;1.13;0.30;;;29.70;99.90;;;;;;4969026;28;20053;-83
2022/07/24 11:59:00;;;;;;;0.40;0.20;;;30.10;99.90;;;;;;4979036;28;20482;-83
2022/07/24 12:01:26;;;;;;;1.48;0.40;;;30.40;99.90;;;;;;4996988;28;22307;-84
2022/07/24 12:03:53;;;;;;;1.60;0.30;;;29.30;99.90;;;;;;5004277;28;20034;-84
2022/07/24 12:06:20;;;;;;;0.50;0.20;;;28.60;99.90;;;;;;5000286;28;20037;-87
2022/07/24 12:08:46;;;;;;;1.48;0.30;;;29.00;99.90;;;;;;4995957;28;20078;-84
2022/07/24 12:11:23;;;;;;;0.75;0.30;;;28.80;99.90;;;;;;4995461;28;20028;-89
2022/07/24 12:13:50;;;;;;;0.80;0.30;;;29.20;99.90;;;;;;5002558;28;20218;-86
2022/07/24 12:16:28;;;;;;;0.57;0.30;;;29.70;99.90;;;;;;5001299;28;20474;-83
2022/07/24 12:19:24;;;;;;;0.85;0.40;;;29.40;99.90;;;;;;4974200;28;20138;-84
2022/07/24 12:21:52;;;;;;;0.65;0.30;;;29.20;99.90;;;;;;4999380;28;20485;-88
2022/07/24 12:24:19;;;;;;;1.73;0.30;;;28.70;99.90;;;;;;4999018;28;20034;-85
2022/07/24 12:26:58;;;;;;;1.15;0.40;;;29.50;99.90;;;;;;4996527;28;20498;-87
2022/07/24 12:29:26;;;;;;;0.98;0.20;;;28.90;99.90;;;;;;5000225;28;20029;-85
2022/07/24 12:32:13;;;;;;;1.42;0.30;;;29.00;99.90;;;;;;4999910;28;20036;-86
2022/07/24 12:34:44;;;;;;;0.98;0.38;;;28.70;99.90;;;;;;5016772;28;20064;-86
2022/07/24 12:37:17;;;;;;;0.88;0.40;;;28.80;99.90;;;;;;4978083;28;20049;-84
2022/07/24 12:39:49;;;;;;;0.80;0.35;;;28.60;99.90;;;;;;5000325;28;20175;-84
2022/07/24 12:42:15;;;;;;;0.73;0.28;;;28.50;99.90;;;;;;5001296;28;20045;-84
2022/07/24 12:44:45;;;;;;;0.80;0.20;;;29.30;99.90;;;;;;5001311;28;20025;-83
2022/07/24 12:47:12;;;;;;;1.70;0.30;;;29.80;99.90;;;;;;4996456;28;20061;-86
2022/07/24 12:49:50;;;;;;;1.00;0.30;;;29.20;99.90;;;;;;4994721;28;20030;-86